Portada
METAR-TAF:

METAR-TAF

Aeroports :

Port-Gentil, Gabon

latitud: 00-42S, longitud: 008-45E, altitud: 3 m

Observació

L'informe es va fer fa 49 minuts, a les 06:00 UTC
Vent 4 kt del Sud/Sud-Oest
Temperatura 25°C
Humitat 94%
Pressió 1012 hPa
Visibilitat 10 km o més
Escasses núvols a una alçada de 800 ft
Núvols disperses a una alçada de 3000 ft

METAR: FOOG 200600Z 21004KT 9999 FEW008 SCT030 25/24 Q1012

Hora: 07:49 (06:49 UTC)

Pronòstic

L'informe es va fer fa 1 hora i 49 minuts, a les 05:00 UTC
Pronòstic vàlid del 20 a les 06 UTC al 21 a les 06 UTC
Vent 6 kt del Oest/Sud-Oest
Visibilitat: 8000 m
Núvols disperses a una alçada de 800 ft
Cel ennuvolat a una alçada de 3200 ft
Probabilitat 30% :
Temporalment
l' 20 a les 10 UTC al 20 a les 14 UTC
Cel ennuvolat a una alçada de 1000 ft
Escasses núvols a una alçada de 2000 ft, Cumulonimbus.
tempesta

TAF: FOOG 200500Z 2006/2106 24006KT 8000 SCT008 BKN032 PROB30 TEMPO 2010/2014 TS BKN010 FEW020CB

Observacions i pronòstics meteorològics de més de 4000 aeroports (METAR i TAF).

Les estacions disponibles són els punts grocs i vermells al mapa.

Posi el ratolí al punt desitjat per veure el nom de l'estació.

Feu clic per veure les observacions i els pronòstics meteorològics.

Per canviar el mapa: feu clic els botons verds amb una creu de color negre per apropar; al botó verd amb un guió per allunyar la imatge; o en les fletxes verdes per a mapes adjacents.


METAR-TAF: